createdAt,value
2022-09-12T00:01:07.123Z,82.47
2022-09-12T00:03:36.474Z,80.52
2022-09-12T00:06:09.299Z,78.30
2022-09-12T00:08:37.559Z,78.69
2022-09-12T00:11:09.473Z,80.58
2022-09-12T00:13:41.442Z,79.98
2022-09-12T00:16:21.671Z,81.36
2022-09-12T00:18:49.565Z,77.22
2022-09-12T00:21:17.887Z,78.45
2022-09-12T00:23:46.133Z,77.47
2022-09-12T00:26:14.207Z,77.54
2022-09-12T00:28:42.087Z,75.26
2022-09-12T00:31:15.681Z,73.99
2022-09-12T00:33:43.794Z,74.76
2022-09-12T00:36:16.972Z,74.10
2022-09-12T00:38:45.501Z,75.92
2022-09-12T00:41:37.570Z,74.86
2022-09-12T00:44:24.167Z,73.06
2022-09-12T00:47:01.326Z,75.12
2022-09-12T00:49:49.685Z,75.69
2022-09-12T00:52:22.453Z,79.22
2022-09-12T00:54:56.092Z,80.87
2022-09-12T00:57:28.482Z,84.25
2022-09-12T01:00:17.463Z,81.03
2022-09-12T01:02:48.263Z,79.50
2022-09-12T01:05:16.204Z,78.92
2022-09-12T01:07:44.713Z,77.28
2022-09-12T01:10:12.185Z,78.51
2022-09-12T01:12:41.352Z,78.28
2022-09-12T01:15:09.231Z,80.33
2022-09-12T01:18:27.690Z,80.66
2022-09-12T01:21:00.136Z,78.16
2022-09-12T01:24:15.105Z,79.48
2022-09-12T01:26:58.141Z,80.34
2022-09-12T01:29:40.552Z,82.35
2022-09-12T01:32:23.683Z,82.19
2022-09-12T01:35:10.065Z,82.67
2022-09-12T01:37:51.604Z,83.21
2022-09-12T01:40:24.035Z,83.65
2022-09-12T01:43:16.066Z,84.46
2022-09-12T01:45:46.719Z,84.29
2022-09-12T01:48:21.127Z,83.37
2022-09-12T01:51:02.519Z,83.65
2022-09-12T01:53:35.228Z,83.53
2022-09-12T01:56:08.843Z,85.61
2022-09-12T01:58:50.722Z,84.62
2022-09-12T02:01:21.923Z,83.21
2022-09-12T02:03:54.205Z,83.87
2022-09-12T02:06:33.034Z,85.36
2022-09-12T02:09:08.224Z,84.66
2022-09-12T02:11:39.888Z,84.96
2022-09-12T02:14:11.524Z,89.92
2022-09-12T02:16:51.578Z,89.24
2022-09-12T02:19:29.998Z,87.48
2022-09-12T02:22:02.454Z,85.48
2022-09-12T02:24:34.102Z,83.51
2022-09-12T02:27:24.993Z,86.31
2022-09-12T02:29:53.501Z,84.24
2022-09-12T02:32:35.136Z,82.49
2022-09-12T02:35:31.203Z,82.50
2022-09-12T02:38:11.630Z,84.04
2022-09-12T02:40:39.293Z,79.88
2022-09-12T02:43:07.313Z,78.77
2022-09-12T02:45:35.975Z,81.35
2022-09-12T02:48:03.786Z,78.80
2022-09-12T02:50:32.157Z,80.97
2022-09-12T02:53:04.937Z,81.56
2022-09-12T02:55:33.616Z,81.27
2022-09-12T02:58:06.360Z,80.15
2022-09-12T03:00:59.055Z,79.61
2022-09-12T03:03:54.257Z,78.27
2022-09-12T03:06:36.233Z,78.30
2022-09-12T03:09:14.099Z,80.19
2022-09-12T03:11:53.984Z,81.16
2022-09-12T03:14:43.079Z,83.05
2022-09-12T03:17:35.925Z,82.35
2022-09-12T03:20:25.144Z,76.70
2022-09-12T03:23:04.442Z,77.02
2022-09-12T03:25:35.982Z,82.53
2022-09-12T03:28:08.156Z,78.30
2022-09-12T03:30:44.115Z,79.49
2022-09-12T03:33:13.615Z,84.81
2022-09-12T03:35:41.496Z,88.95
2022-09-12T03:38:09.153Z,82.34
2022-09-12T03:40:38.325Z,80.83
2022-09-12T03:43:06.393Z,82.07
2022-09-12T03:45:34.163Z,81.37
2022-09-12T03:48:02.514Z,81.95
2022-09-12T03:50:30.033Z,81.75
2022-09-12T03:52:59.686Z,81.43
2022-09-12T03:55:27.566Z,82.24
2022-09-12T03:57:55.309Z,81.80
2022-09-12T04:00:22.872Z,81.37
2022-09-12T04:02:55.161Z,81.97
2022-09-12T04:05:23.655Z,81.41
2022-09-12T04:07:51.555Z,82.27
2022-09-12T04:10:18.986Z,81.65
2022-09-12T04:12:46.361Z,81.64
2022-09-12T04:15:14.611Z,82.78
2022-09-12T04:17:42.000Z,82.79
2022-09-12T04:20:09.583Z,82.55
2022-09-12T04:22:37.215Z,83.19
2022-09-12T04:25:04.983Z,81.98
2022-09-12T04:27:32.422Z,79.77
2022-09-12T04:30:01.205Z,78.69
2022-09-12T04:32:30.983Z,79.62
2022-09-12T04:34:58.479Z,83.38
2022-09-12T04:37:26.283Z,80.63
2022-09-12T04:39:57.821Z,78.75
2022-09-12T04:42:26.207Z,79.41
2022-09-12T04:44:53.551Z,80.56
2022-09-12T04:47:21.059Z,83.82
2022-09-12T04:49:48.888Z,80.06
2022-09-12T04:52:16.665Z,81.11
2022-09-12T04:54:44.119Z,80.92
2022-09-12T04:57:11.765Z,80.94
2022-09-12T04:59:39.457Z,81.42
2022-09-12T05:02:06.840Z,79.05
2022-09-12T05:04:34.911Z,78.57
2022-09-12T05:07:02.925Z,77.36
2022-09-12T05:09:30.311Z,82.73
2022-09-12T05:12:05.750Z,84.17
2022-09-12T05:14:34.257Z,82.34
2022-09-12T05:17:02.796Z,79.69
2022-09-12T05:19:30.990Z,78.36
2022-09-12T05:21:59.044Z,76.42
2022-09-12T05:24:26.892Z,80.90
2022-09-12T05:26:54.242Z,77.30
2022-09-12T05:29:22.052Z,77.55
2022-09-12T05:31:52.110Z,75.86
2022-09-12T05:34:20.737Z,76.34
2022-09-12T05:36:49.125Z,76.10
2022-09-12T05:39:16.889Z,74.78
2022-09-12T05:41:44.255Z,76.25
2022-09-12T05:44:12.622Z,76.00
2022-09-12T05:46:42.496Z,74.77
2022-09-12T05:49:12.083Z,74.10
2022-09-12T05:51:42.683Z,75.61
2022-09-12T05:54:12.033Z,72.49
2022-09-12T05:56:59.365Z,75.21
2022-09-12T05:59:28.486Z,75.03
2022-09-12T06:01:56.214Z,72.54
2022-09-12T06:04:23.950Z,72.43
2022-09-12T06:06:51.943Z,71.66
2022-09-12T06:09:19.363Z,72.75
2022-09-12T06:11:47.344Z,73.76
2022-09-12T06:14:16.503Z,77.54
2022-09-12T06:16:43.922Z,75.15
2022-09-12T06:19:19.122Z,75.47
2022-09-12T06:21:48.049Z,76.87
2022-09-12T06:24:16.342Z,76.33
2022-09-12T06:26:43.929Z,77.16
2022-09-12T06:29:11.905Z,76.34
2022-09-12T06:31:42.117Z,75.49
2022-09-12T06:34:12.207Z,74.98
2022-09-12T06:36:43.182Z,75.19
2022-09-12T06:39:12.714Z,76.26
2022-09-12T06:41:43.962Z,77.21
2022-09-12T06:44:17.140Z,76.00
2022-09-12T06:46:45.382Z,74.39
2022-09-12T06:49:13.431Z,73.50
2022-09-12T06:51:43.575Z,73.67
2022-09-12T06:54:15.708Z,75.18
2022-09-12T06:56:43.219Z,73.41
2022-09-12T06:59:10.931Z,73.47
2022-09-12T07:01:38.426Z,72.88
2022-09-12T07:04:06.179Z,73.12
2022-09-12T07:06:41.552Z,71.84
2022-09-12T07:09:14.400Z,71.42
2022-09-12T07:11:42.370Z,72.24
2022-09-12T07:14:12.969Z,72.44
2022-09-12T07:16:40.367Z,72.32
2022-09-12T07:19:09.021Z,71.46
2022-09-12T07:21:40.031Z,71.89
2022-09-12T07:24:09.904Z,73.49
2022-09-12T07:26:38.694Z,71.60
2022-09-12T07:29:32.772Z,70.65
2022-09-12T07:31:53.832Z,70.79
2022-09-12T07:34:21.214Z,69.34
2022-09-12T07:36:48.573Z,68.56
2022-09-12T07:39:16.347Z,67.95
2022-09-12T07:41:43.777Z,67.04
2022-09-12T07:44:11.175Z,66.62
2022-09-12T07:46:39.957Z,67.01
2022-09-12T07:49:08.559Z,66.50
2022-09-12T07:51:36.103Z,67.03
2022-09-12T07:54:07.864Z,68.04
2022-09-12T07:56:38.906Z,68.56
2022-09-12T07:59:08.399Z,65.55
2022-09-12T08:01:36.381Z,69.64
2022-09-12T08:04:05.202Z,67.00
2022-09-12T08:06:35.904Z,67.87
2022-09-12T08:09:04.892Z,67.23
2022-09-12T08:11:32.390Z,62.70
2022-09-12T08:14:01.774Z,60.02
2022-09-12T08:16:31.331Z,56.62
2022-09-12T08:19:01.028Z,55.87
2022-09-12T08:21:31.521Z,53.71
2022-09-12T08:24:01.323Z,52.05
2022-09-12T08:26:29.620Z,51.08
2022-09-12T08:28:57.070Z,51.12
2022-09-12T08:31:25.603Z,52.51
2022-09-12T08:33:56.103Z,55.40
2022-09-12T08:36:25.772Z,52.43
2022-09-12T08:39:02.393Z,55.11
2022-09-12T08:41:31.980Z,52.22
2022-09-12T08:44:32.105Z,53.27
2022-09-12T08:47:08.768Z,54.07
2022-09-12T08:49:44.626Z,54.42
2022-09-12T08:52:17.479Z,55.11
2022-09-12T08:54:47.943Z,56.88
2022-09-12T08:57:15.827Z,51.72
2022-09-12T08:59:44.914Z,53.33
2022-09-12T09:02:24.875Z,53.82
2022-09-12T09:04:57.266Z,55.30
2022-09-12T09:07:37.479Z,52.29
2022-09-12T09:10:23.086Z,53.56
2022-09-12T09:13:08.859Z,53.44
2022-09-12T09:16:11.771Z,50.66
2022-09-12T09:18:40.049Z,52.05
2022-09-12T09:21:20.422Z,52.22
2022-09-12T09:23:53.584Z,51.02
2022-09-12T09:26:56.517Z,51.18
2022-09-12T09:29:28.259Z,49.93
2022-09-12T09:31:57.889Z,48.71
2022-09-12T09:34:30.197Z,49.76
2022-09-12T09:37:01.387Z,51.31
2022-09-12T09:39:49.193Z,52.90
2022-09-12T09:42:23.460Z,51.93
2022-09-12T09:44:53.148Z,53.16
2022-09-12T09:47:20.712Z,54.12
2022-09-12T09:49:48.055Z,53.72
2022-09-12T09:52:17.609Z,52.71
2022-09-12T09:54:49.627Z,52.20
2022-09-12T09:57:35.606Z,54.13
2022-09-12T10:00:22.701Z,51.28
2022-09-12T10:03:13.379Z,52.12
2022-09-12T10:05:53.117Z,52.12
2022-09-12T10:08:22.150Z,51.03
2022-09-12T10:11:19.458Z,50.59
2022-09-12T10:14:00.603Z,50.45
2022-09-12T10:16:33.246Z,48.45
2022-09-12T10:19:03.151Z,49.05
2022-09-12T10:21:41.368Z,51.63
2022-09-12T10:24:33.358Z,52.07
2022-09-12T10:27:23.291Z,51.22
2022-09-12T10:29:55.961Z,50.93
2022-09-12T10:32:36.362Z,50.81
2022-09-12T10:35:09.240Z,50.61
2022-09-12T10:37:39.639Z,51.87
2022-09-12T10:40:21.606Z,54.29
2022-09-12T10:42:50.396Z,52.81
2022-09-12T10:45:31.175Z,55.80
2022-09-12T10:48:05.415Z,57.89
2022-09-12T10:50:42.739Z,58.60
2022-09-12T10:53:34.765Z,59.15
2022-09-12T10:56:07.324Z,58.25
2022-09-12T10:58:39.537Z,58.20
2022-09-12T11:01:17.772Z,56.41
2022-09-12T11:04:10.230Z,57.21
2022-09-12T11:07:01.940Z,57.63
2022-09-12T11:09:39.544Z,58.71
2022-09-12T11:12:10.419Z,59.43
2022-09-12T11:15:00.698Z,59.67
2022-09-12T11:17:52.047Z,59.47
2022-09-12T11:20:42.158Z,59.76
2022-09-12T11:23:47.599Z,60.84
2022-09-12T11:26:19.173Z,61.91
2022-09-12T11:29:19.328Z,61.15
2022-09-12T11:31:56.992Z,60.31
2022-09-12T11:34:44.845Z,57.13
2022-09-12T11:37:25.203Z,58.56
2022-09-12T11:39:55.622Z,58.46
2022-09-12T11:42:29.406Z,59.26
2022-09-12T11:45:05.921Z,59.88
2022-09-12T11:47:35.245Z,59.98
2022-09-12T11:50:06.022Z,60.02
2022-09-12T11:52:37.407Z,59.29
2022-09-12T11:55:20.125Z,60.91
2022-09-12T11:57:54.242Z,61.59
2022-09-12T12:00:32.920Z,60.17
2022-09-12T12:03:06.571Z,59.57
2022-09-12T12:05:54.409Z,60.26
2022-09-12T12:08:27.586Z,56.31
2022-09-12T12:11:07.848Z,55.30
2022-09-12T12:13:48.490Z,54.74
2022-09-12T12:16:21.480Z,54.64
2022-09-12T12:18:55.694Z,55.81
2022-09-12T12:21:32.051Z,54.74
2022-09-12T12:24:04.839Z,53.77
2022-09-12T12:26:41.484Z,51.92
2022-09-12T12:29:13.946Z,54.02
2022-09-12T12:32:10.360Z,53.48
2022-09-12T12:34:43.011Z,55.11
2022-09-12T12:37:19.325Z,55.54
2022-09-12T12:39:48.093Z,55.09
2022-09-12T12:43:02.514Z,55.97
2022-09-12T12:45:30.054Z,55.77
2022-09-12T12:48:05.083Z,54.91
2022-09-12T12:50:35.788Z,55.74
2022-09-12T12:53:05.449Z,54.80
2022-09-12T12:55:35.169Z,54.88
2022-09-12T12:58:03.449Z,53.77
2022-09-12T13:00:40.065Z,53.38
2022-09-12T13:03:10.643Z,53.83
2022-09-12T13:05:44.371Z,53.40
2022-09-12T13:08:28.820Z,52.45
2022-09-12T13:10:59.852Z,51.46
2022-09-12T13:13:36.399Z,49.60
2022-09-12T13:16:03.972Z,49.84
2022-09-12T13:18:52.035Z,51.38
2022-09-12T13:21:21.610Z,48.16
2022-09-12T13:24:02.582Z,48.72
2022-09-12T13:26:35.510Z,48.57
2022-09-12T13:29:15.773Z,48.08
2022-09-12T13:31:47.339Z,45.11
2022-09-12T13:34:21.340Z,45.29
2022-09-12T13:37:12.488Z,45.31
2022-09-12T13:39:40.090Z,45.32
2022-09-12T13:42:48.573Z,44.41
2022-09-12T13:45:21.246Z,44.25
2022-09-12T13:47:58.540Z,44.59
2022-09-12T13:50:29.084Z,43.87
2022-09-12T13:52:59.277Z,44.10
2022-09-12T13:55:35.202Z,43.78
2022-09-12T13:58:14.046Z,43.91
2022-09-12T14:00:41.685Z,44.86
2022-09-12T14:03:44.693Z,45.08
2022-09-12T14:06:12.888Z,44.13
2022-09-12T14:08:43.480Z,44.87
2022-09-12T14:11:11.728Z,43.82
2022-09-12T14:13:39.359Z,45.69
2022-09-12T14:16:10.109Z,44.00
2022-09-12T14:18:38.734Z,43.67
2022-09-12T14:21:36.892Z,44.11
2022-09-12T14:24:07.004Z,43.98
2022-09-12T14:26:36.559Z,43.13
2022-09-12T14:29:07.888Z,42.87
2022-09-12T14:31:37.559Z,43.37
2022-09-12T14:34:11.132Z,42.48
2022-09-12T14:36:56.328Z,42.58
2022-09-12T14:39:33.946Z,42.87
2022-09-12T14:42:17.025Z,41.66
2022-09-12T14:44:53.295Z,42.94
2022-09-12T14:47:23.608Z,43.05
2022-09-12T14:49:54.114Z,44.10
2022-09-12T14:52:23.547Z,43.54
2022-09-12T14:55:03.629Z,43.29
2022-09-12T14:57:35.347Z,43.51
2022-09-12T15:00:14.754Z,42.26
2022-09-12T15:02:43.363Z,42.27
2022-09-12T15:05:11.078Z,42.20
2022-09-12T15:07:40.506Z,41.59
2022-09-12T15:10:18.860Z,42.44
2022-09-12T15:12:46.514Z,41.81
2022-09-12T15:15:16.331Z,42.65
2022-09-12T15:17:43.971Z,42.26
2022-09-12T15:20:13.154Z,42.78
2022-09-12T15:22:40.885Z,43.02
2022-09-12T15:25:09.814Z,42.76
2022-09-12T15:27:40.859Z,42.50
2022-09-12T15:30:10.364Z,41.93
2022-09-12T15:32:38.061Z,42.90
2022-09-12T15:35:15.805Z,42.89
2022-09-12T15:37:43.495Z,42.69
2022-09-12T15:40:12.244Z,41.96
2022-09-12T15:42:39.795Z,40.22
2022-09-12T15:45:17.545Z,39.94
2022-09-12T15:47:44.922Z,41.18
2022-09-12T15:50:12.784Z,40.58
2022-09-12T15:52:41.036Z,40.34
2022-09-12T15:55:20.775Z,40.47
2022-09-12T15:57:48.844Z,40.77
2022-09-12T16:00:17.849Z,41.72
2022-09-12T16:02:47.022Z,41.35
2022-09-12T16:05:17.698Z,41.39
2022-09-12T16:07:45.551Z,40.63
2022-09-12T16:10:17.362Z,40.83
2022-09-12T16:12:46.140Z,40.56
2022-09-12T16:15:16.110Z,40.32
2022-09-12T16:17:43.620Z,40.04
2022-09-12T16:20:11.505Z,39.80
2022-09-12T16:22:39.267Z,40.10
2022-09-12T16:25:07.995Z,40.94
2022-09-12T16:27:36.382Z,41.48
2022-09-12T16:30:06.375Z,41.24
2022-09-12T16:32:33.735Z,42.07
2022-09-12T16:35:01.987Z,41.20
2022-09-12T16:37:29.448Z,41.20
2022-09-12T16:39:56.953Z,41.60
2022-09-12T16:42:24.692Z,41.15
2022-09-12T16:44:52.461Z,41.17
2022-09-12T16:47:19.990Z,40.92
2022-09-12T16:49:47.633Z,41.16
2022-09-12T16:52:16.674Z,41.83
2022-09-12T16:54:46.808Z,41.20
2022-09-12T16:57:14.815Z,40.92
2022-09-12T16:59:42.191Z,41.25
2022-09-12T17:02:13.704Z,41.19
2022-09-12T17:04:41.727Z,41.85
2022-09-12T17:07:09.283Z,42.19
2022-09-12T17:09:36.755Z,42.38
2022-09-12T17:12:04.518Z,42.94
2022-09-12T17:14:31.966Z,43.46
2022-09-12T17:16:59.443Z,43.50
2022-09-12T17:19:29.783Z,43.90
2022-09-12T17:21:57.662Z,44.68
2022-09-12T17:24:25.630Z,43.86
2022-09-12T17:26:53.908Z,44.06
2022-09-12T17:29:22.896Z,45.79
2022-09-12T17:31:50.476Z,46.51
2022-09-12T17:34:18.316Z,47.55
2022-09-12T17:36:46.290Z,46.90
2022-09-12T17:39:14.735Z,47.10
2022-09-12T17:41:42.946Z,48.71
2022-09-12T17:44:14.971Z,50.36
2022-09-12T17:46:42.865Z,48.40
2022-09-12T17:49:18.700Z,50.34
2022-09-12T17:51:46.709Z,49.03
2022-09-12T17:54:17.345Z,49.97
2022-09-12T17:56:46.653Z,51.04
2022-09-12T17:59:17.534Z,48.82
2022-09-12T18:02:03.926Z,49.98
2022-09-12T18:04:32.822Z,49.58
2022-09-12T18:07:00.690Z,47.61
2022-09-12T18:09:28.676Z,47.63
2022-09-12T18:11:57.397Z,47.68
2022-09-12T18:14:27.460Z,47.32
2022-09-12T18:16:57.320Z,47.74
2022-09-12T18:19:25.293Z,47.84
2022-09-12T18:21:54.790Z,49.61
2022-09-12T18:24:22.826Z,51.00
2022-09-12T18:26:50.948Z,51.00
2022-09-12T18:29:20.337Z,49.80
2022-09-12T18:31:47.954Z,50.78
2022-09-12T18:34:16.942Z,50.30
2022-09-12T18:36:47.296Z,49.33
2022-09-12T18:39:16.011Z,50.52
2022-09-12T18:41:44.395Z,50.24
2022-09-12T18:44:12.835Z,50.55
2022-09-12T18:46:41.005Z,50.74
2022-09-12T18:49:09.487Z,50.75
2022-09-12T18:51:40.270Z,50.97
2022-09-12T18:54:13.421Z,51.32
2022-09-12T18:56:43.576Z,51.47
2022-09-12T18:59:14.389Z,52.30
2022-09-12T19:01:43.221Z,51.48
2022-09-12T19:04:12.959Z,50.62
2022-09-12T19:06:42.567Z,50.73
2022-09-12T19:09:11.746Z,51.20
2022-09-12T19:11:42.823Z,51.54
2022-09-12T19:14:10.617Z,50.92
2022-09-12T19:16:38.519Z,51.87
2022-09-12T19:19:07.162Z,51.38
2022-09-12T19:21:37.154Z,52.03
2022-09-12T19:24:10.470Z,51.21
2022-09-12T19:26:39.483Z,52.19
2022-09-12T19:29:08.719Z,52.21
2022-09-12T19:31:36.483Z,52.71
2022-09-12T19:34:08.182Z,52.70
2022-09-12T19:36:51.706Z,53.91
2022-09-12T19:39:19.983Z,52.42
2022-09-12T19:41:48.515Z,51.22
2022-09-12T19:44:19.189Z,50.94
2022-09-12T19:46:47.260Z,50.43
2022-09-12T19:49:15.094Z,50.90
2022-09-12T19:51:43.965Z,49.25
2022-09-12T19:54:11.708Z,48.98
2022-09-12T19:56:39.609Z,51.13
2022-09-12T19:59:07.029Z,49.66
2022-09-12T20:01:37.338Z,48.86
2022-09-12T20:04:05.648Z,52.33
2022-09-12T20:06:33.025Z,53.54
2022-09-12T20:09:00.419Z,55.07
2022-09-12T20:11:28.411Z,55.15
2022-09-12T20:13:55.763Z,55.98
2022-09-12T20:16:29.657Z,57.04
2022-09-12T20:19:00.726Z,56.20
2022-09-12T20:21:31.910Z,55.60
2022-09-12T20:24:08.513Z,52.99
2022-09-12T20:26:36.558Z,58.56
2022-09-12T20:29:05.559Z,61.20
2022-09-12T20:31:33.900Z,61.07
2022-09-12T20:34:01.479Z,59.30
2022-09-12T20:36:29.170Z,57.68
2022-09-12T20:39:00.022Z,57.94
2022-09-12T20:41:29.682Z,59.11
2022-09-12T20:43:58.137Z,60.77
2022-09-12T20:46:27.188Z,59.95
2022-09-12T20:48:54.811Z,59.60
2022-09-12T20:51:23.163Z,58.34
2022-09-12T20:53:54.472Z,56.10
2022-09-12T20:56:23.496Z,56.08
2022-09-12T20:58:51.117Z,55.35
2022-09-12T21:01:18.673Z,56.83
2022-09-12T21:03:46.604Z,58.74
2022-09-12T21:06:17.019Z,59.88
2022-09-12T21:08:45.874Z,60.73
2022-09-12T21:11:14.056Z,60.54
2022-09-12T21:13:41.759Z,57.40
2022-09-12T21:16:14.681Z,62.48
2022-09-12T21:18:42.795Z,64.35
2022-09-12T21:21:11.988Z,59.78
2022-09-12T21:23:39.928Z,60.75
2022-09-12T21:26:08.136Z,68.12
2022-09-12T21:28:35.667Z,70.27
2022-09-12T21:31:03.324Z,68.60
2022-09-12T21:33:31.107Z,69.17
2022-09-12T21:36:05.734Z,69.29
2022-09-12T21:38:33.522Z,69.31
2022-09-12T21:41:09.449Z,71.68
2022-09-12T21:43:37.746Z,70.66
2022-09-12T21:46:06.206Z,71.42
2022-09-12T21:48:34.122Z,71.46
2022-09-12T21:51:01.964Z,68.14
2022-09-12T21:53:29.341Z,64.97
2022-09-12T21:56:01.470Z,64.73
2022-09-12T21:58:29.158Z,64.13
2022-09-12T22:00:56.957Z,65.45
2022-09-12T22:03:26.089Z,67.91
2022-09-12T22:06:01.604Z,67.48
2022-09-12T22:08:30.333Z,69.45
2022-09-12T22:10:59.644Z,69.74
2022-09-12T22:13:27.249Z,71.99
2022-09-12T22:15:55.060Z,73.06
2022-09-12T22:18:22.529Z,70.16
2022-09-12T22:20:50.020Z,71.45
2022-09-12T22:23:36.473Z,70.09
2022-09-12T22:26:03.854Z,69.31
2022-09-12T22:28:32.266Z,70.93
2022-09-12T22:30:59.827Z,70.71
2022-09-12T22:33:28.087Z,70.29
2022-09-12T22:35:55.697Z,69.67
2022-09-12T22:38:23.054Z,67.72
2022-09-12T22:40:50.452Z,67.43
2022-09-12T22:43:19.148Z,66.55
2022-09-12T22:45:46.706Z,67.12
2022-09-12T22:48:14.239Z,66.23
2022-09-12T22:50:41.912Z,66.72
2022-09-12T22:53:09.294Z,65.13
2022-09-12T22:55:36.755Z,66.62
2022-09-12T22:58:04.420Z,66.77
2022-09-12T23:00:32.035Z,69.78
2022-09-12T23:02:59.544Z,70.37
2022-09-12T23:05:27.558Z,69.66
2022-09-12T23:07:55.613Z,66.57
2022-09-12T23:10:22.977Z,65.85
2022-09-12T23:12:50.585Z,65.70
2022-09-12T23:15:17.948Z,65.54
2022-09-12T23:17:45.325Z,65.92
2022-09-12T23:20:12.957Z,65.62
2022-09-12T23:22:40.346Z,65.23
2022-09-12T23:25:08.914Z,67.30
2022-09-12T23:27:36.540Z,67.79
2022-09-12T23:30:04.207Z,66.89
2022-09-12T23:32:31.613Z,67.35
2022-09-12T23:34:59.394Z,68.39
2022-09-12T23:37:27.039Z,67.93
2022-09-12T23:39:54.411Z,64.31
2022-09-12T23:42:22.299Z,63.48
2022-09-12T23:44:49.681Z,61.99
2022-09-12T23:47:18.449Z,64.60
2022-09-12T23:49:46.083Z,70.06
2022-09-12T23:52:13.445Z,71.72
2022-09-12T23:54:40.804Z,72.69
2022-09-12T23:57:08.444Z,71.42
2022-09-12T23:59:35.875Z,71.84
